Time;durP1;ratioP1;P1;durP2;ratioP2;P2;SDS_P1;SDS_P2;PMS_P1;PMS_P2;Temp;Humidity;BMP_temperature;BMP_pressure;BME280_temperature;BME280_humidity;BME280_pressure;Samples;Min_cycle;Max_cycle;Signal;HPM_P1;HPM_P2
2022/07/07 00:40:34;;;;;;;;;;;;;;;;;;;;;
2022/07/07 01:01:52;;;;;;;8.50;1.80;;;;;;;12.88;54.41;99345.75;106196;1282;22721;-89
2022/07/07 01:28:00;;;;;;;;;;;;;;;;;;;;;
2022/07/07 02:03:48;;;;;;;;;;;;;;;;;;;;;
2022/07/07 02:08:15;;;;;;;;;;;;;;;;;;;;;
2022/07/07 02:56:08;;;;;;;6.10;1.60;;;;;;;12.35;57.25;99302.45;105200;1288;25659;-87
2022/07/07 03:07:25;;;;;;;;;;;;;;;;;;;;;
2022/07/07 03:24:44;;;;;;;;;;;;;;;;;;;;;
2022/07/07 03:27:56;;;;;;;;;;;;;;;;;;;;;
2022/07/07 03:30:46;;;;;;;;;;;;;;;;;;;;;
2022/07/07 03:45:54;;;;;;;16.90;2.40;;;;;;;13.23;58.10;99280.48;105367;1281;22721;-86
2022/07/07 03:49:11;;;;;;;10.70;1.90;;;;;;;13.26;58.15;99280.05;105590;1280;22773;-87
2022/07/07 03:52:16;;;;;;;8.90;1.80;;;;;;;13.28;58.06;99278.98;105577;1281;22733;-86
2022/07/07 03:55:19;;;;;;;;;;;;;;;;;;;;;
2022/07/07 04:03:33;;;;;;;7.50;1.30;;;;;;;13.49;57.70;99269.80;105040;1288;22577;-87
2022/07/07 04:06:34;;;;;;;;;;;;;;;;;;;;;
2022/07/07 04:09:50;;;;;;;;;;;;;;;;;;;;;
2022/07/07 04:12:55;;;;;;;5.40;1.50;;;;;;;13.84;57.55;99261.77;104193;1294;24453;-86
2022/07/07 04:16:14;;;;;;;8.20;1.50;;;;;;;13.91;57.46;99263.11;104657;1293;23925;-86
2022/07/07 04:19:15;;;;;;;6.80;1.40;;;;;;;13.96;57.36;99259.15;104440;1294;22829;-86
2022/07/07 04:22:44;;;;;;;;;;;;;;;;;;;;;
2022/07/07 04:26:27;;;;;;;11.40;1.60;;;;;;;13.99;57.37;99254.25;104369;1294;25241;-86
2022/07/07 04:30:17;;;;;;;7.60;1.60;;;;;;;13.99;57.27;99251.00;104352;1294;24388;-87
2022/07/07 04:33:39;;;;;;;;;;;;;;;;;;;;;
2022/07/07 04:37:21;;;;;;;7.90;2.10;;;;;;;14.05;57.29;99250.84;104386;1294;22623;-87
2022/07/07 04:40:56;;;;;;;6.50;1.70;;;;;;;14.18;57.15;99256.27;104450;1291;22776;-87
2022/07/07 04:44:30;;;;;;;12.10;1.70;;;;;;;14.35;57.27;99253.21;104340;1293;24276;-86
2022/07/07 04:47:28;;;;;;;5.40;1.40;;;;;;;14.49;57.15;99250.77;104511;1294;25489;-86
2022/07/07 04:51:11;;;;;;;;;;;;;;;;;;;;;
2022/07/07 04:54:15;;;;;;;;;;;;;;;;;;;;;
2022/07/07 05:00:36;;;;;;;8.20;1.50;;;;;;;15.00;57.37;99235.98;104064;1300;22743;-87
2022/07/07 05:08:32;;;;;;;12.80;1.70;;;;;;;15.28;57.36;99238.66;103795;1303;25363;-88
2022/07/07 05:11:53;;;;;;;15.40;2.10;;;;;;;15.44;57.44;99235.32;103055;1308;25247;-87
2022/07/07 05:20:00;;;;;;;11.10;1.90;;;;;;;15.69;57.56;99229.86;104570;1293;26570;-88
2022/07/07 05:31:59;;;;;;;17.80;2.20;;;;;;;16.05;57.55;99216.15;105603;1282;22588;-87
2022/07/07 05:43:56;;;;;;;;;;;;;;;;;;;;;
2022/07/07 05:56:12;;;;;;;8.70;1.40;;;;;;;17.36;56.58;99216.30;105681;1282;24232;-88
2022/07/07 05:59:08;;;;;;;;;;;;;;;;;;;;;
2022/07/07 06:02:40;;;;;;;9.10;1.40;;;;;;;17.44;56.15;99212.42;105564;1288;23947;-85
2022/07/07 06:05:23;;;;;;;6.60;1.50;;;;;;;17.51;56.43;99213.66;105655;1287;22686;-87
2022/07/07 06:08:04;;;;;;;4.40;1.10;;;;;;;17.77;56.56;99211.74;105247;1288;22540;-87
2022/07/07 06:11:04;;;;;;;5.80;1.10;;;;;;;17.88;56.16;99209.36;105110;1287;25444;-87
2022/07/07 06:13:56;;;;;;;6.10;1.00;;;;;;;17.89;56.30;99209.45;105141;1287;25352;-86
2022/07/07 06:16:55;;;;;;;;;;;;;;;;;;;;;
2022/07/07 06:19:44;;;;;;;6.20;1.10;;;;;;;17.56;55.86;99205.00;105109;1287;24276;-86
2022/07/07 06:22:33;;;;;;;;;;;;;;;;;;;;;
2022/07/07 06:25:45;;;;;;;;;;;;;;;;;;;;;
2022/07/07 06:28:53;;;;;;;6.80;0.90;;;;;;;17.72;56.29;99200.65;105333;1288;22608;-84
2022/07/07 06:31:31;;;;;;;9.40;1.00;;;;;;;17.75;56.10;99198.02;104984;1288;22572;-83
2022/07/07 06:34:16;;;;;;;10.10;1.10;;;;;;;17.76;55.88;99192.88;105268;1287;25395;-84
2022/07/07 06:40:43;;;;;;;4.90;1.00;;;;;;;17.96;55.72;99192.88;105644;1281;25328;-85
2022/07/07 06:43:28;;;;;;;5.90;1.00;;;;;;;18.16;56.03;99193.05;105763;1281;25402;-86
2022/07/07 06:46:20;;;;;;;6.00;1.00;;;;;;;18.26;55.45;99190.79;105726;1283;22778;-84
2022/07/07 06:49:16;;;;;;;;;;;;;;;;;;;;;
2022/07/07 06:52:25;;;;;;;7.30;1.10;;;;;;;18.46;55.73;99187.65;105366;1285;24198;-86
2022/07/07 06:55:12;;;;;;;;;;;;;;;;;;;;;
2022/07/07 06:58:46;;;;;;;;;;;;;;;;;;;;;
2022/07/07 07:01:42;;;;;;;;;;;;;;;;;;;;;
2022/07/07 07:04:57;;;;;;;7.90;1.40;;;;;;;19.41;55.17;99179.45;105757;1281;22569;-85
2022/07/07 07:07:40;;;;;;;6.80;0.80;;;;;;;19.65;55.12;99176.00;105810;1281;24311;-85
2022/07/07 07:10:13;;;;;;;6.20;0.90;;;;;;;19.77;54.25;99171.15;105544;1282;23914;-84
2022/07/07 07:12:49;;;;;;;6.00;0.60;;;;;;;19.66;54.40;99169.77;105789;1281;22537;-89
2022/07/07 07:15:26;;;;;;;6.80;0.80;;;;;;;19.69;54.49;99168.12;105476;1283;25509;-84
2022/07/07 07:18:09;;;;;;;3.40;0.80;;;;;;;19.83;54.52;99168.99;105795;1281;22539;-89
2022/07/07 07:20:48;;;;;;;8.80;0.90;;;;;;;20.03;54.40;99163.73;105707;1281;22537;-86
2022/07/07 07:23:25;;;;;;;5.60;1.00;;;;;;;20.30;53.87;99164.96;105720;1283;22556;-84
2022/07/07 07:26:03;;;;;;;4.60;0.80;;;;;;;20.57;53.69;99161.95;105649;1281;22543;-85
2022/07/07 07:28:57;;;;;;;6.50;0.70;;;;;;;20.80;53.40;99161.98;105498;1281;25625;-84
2022/07/07 07:31:44;;;;;;;6.60;0.80;;;;;;;21.07;53.23;99156.02;105670;1281;25472;-84
2022/07/07 07:34:24;;;;;;;6.40;0.90;;;;;;;21.41;53.67;99154.14;105720;1281;24776;-84
2022/07/07 07:37:02;;;;;;;6.80;0.70;;;;;;;21.77;53.32;99151.90;105677;1281;25665;-84
2022/07/07 07:39:41;;;;;;;8.60;0.90;;;;;;;22.05;52.90;99155.14;105518;1284;22586;-82
2022/07/07 07:42:25;;;;;;;5.00;0.70;;;;;;;22.06;52.14;99155.07;105614;1281;25686;-85
2022/07/07 07:45:16;;;;;;;5.00;0.80;;;;;;;21.92;52.07;99147.07;105612;1281;22884;-88
2022/07/07 07:48:01;;;;;;;3.00;0.60;;;;;;;22.03;52.61;99143.64;105778;1282;23922;-85
2022/07/07 07:50:40;;;;;;;4.90;0.70;;;;;;;22.30;52.71;99142.39;105573;1281;24351;-84
2022/07/07 07:53:09;;;;;;;4.90;0.70;;;;;;;22.46;52.05;99133.33;105568;1282;25487;-85
2022/07/07 07:55:44;;;;;;;5.10;0.50;;;;;;;22.46;51.76;99140.70;105728;1281;22867;-86
2022/07/07 07:58:39;;;;;;;3.70;0.40;;;;;;;22.43;50.97;99134.55;105234;1285;25352;-84
2022/07/07 08:01:55;;;;;;;4.10;0.60;;;;;;;22.24;51.26;99142.24;105030;1286;24446;-83
2022/07/07 08:04:38;;;;;;;4.60;0.80;;;;;;;22.20;51.00;99140.88;105358;1285;24222;-84
2022/07/07 08:07:14;;;;;;;5.90;0.70;;;;;;;22.05;51.22;99145.39;105264;1285;22620;-87
2022/07/07 08:09:44;;;;;;;9.50;1.00;;;;;;;21.88;51.08;99144.11;104981;1287;23965;-84
2022/07/07 08:12:19;;;;;;;5.00;0.70;;;;;;;21.71;50.81;99144.37;105205;1285;22537;-86
2022/07/07 08:15:03;;;;;;;7.20;1.30;;;;;;;21.46;50.64;99147.84;105158;1287;22563;-84
2022/07/07 08:17:48;;;;;;;6.20;0.90;;;;;;;21.10;50.48;99149.73;105223;1286;22597;-83
2022/07/07 08:20:25;;;;;;;6.80;0.80;;;;;;;20.76;49.61;99153.69;105102;1286;22851;-90
2022/07/07 08:23:05;;;;;;;;;;;;;;;;;;;;;
2022/07/07 08:25:50;;;;;;;3.70;0.60;;;;;;;20.21;50.24;99155.64;105111;1287;22552;-84
2022/07/07 08:28:20;;;;;;;3.20;0.50;;;;;;;20.09;50.71;99160.05;104822;1290;24223;-87
2022/07/07 08:30:55;;;;;;;2.90;0.40;;;;;;;20.05;50.93;99158.08;105471;1281;24280;-87
2022/07/07 08:33:44;;;;;;;3.80;0.50;;;;;;;19.92;50.06;99164.91;105700;1281;24374;-83
2022/07/07 08:36:26;;;;;;;2.40;0.50;;;;;;;19.69;50.15;99160.71;105621;1281;23524;-87
2022/07/07 08:39:29;;;;;;;4.50;0.60;;;;;;;19.57;50.40;99157.88;105810;1281;22716;-84
2022/07/07 08:42:16;;;;;;;;;;;;;;;;;;;;;
2022/07/07 08:45:18;;;;;;;;;;;;;;;;;;;;;
2022/07/07 08:47:54;;;;;;;3.90;0.60;;;;;;;19.75;50.28;99157.23;105269;1281;24354;-86
2022/07/07 08:50:34;;;;;;;3.90;0.80;;;;;;;19.72;50.18;99157.16;105706;1285;25245;-85
2022/07/07 08:53:37;;;;;;;;;;;;;;;;;;;;;
2022/07/07 08:56:33;;;;;;;4.00;0.60;;;;;;;19.99;50.95;99160.55;105782;1281;22532;-87
2022/07/07 09:00:15;;;;;;;3.10;0.50;;;;;;;20.23;50.77;99160.05;105717;1281;22705;-88
2022/07/07 09:02:50;;;;;;;5.20;0.60;;;;;;;20.35;49.88;99160.89;105186;1287;23961;-87
2022/07/07 09:05:49;;;;;;;2.70;0.50;;;;;;;20.11;49.34;99162.68;105181;1287;22594;-87
2022/07/07 09:08:22;;;;;;;4.50;0.70;;;;;;;19.87;49.87;99166.39;105167;1287;23219;-90
2022/07/07 09:10:53;;;;;;;4.60;0.80;;;;;;;19.86;50.41;99166.12;105224;1288;25253;-87
2022/07/07 09:13:35;;;;;;;3.80;0.60;;;;;;;19.99;50.26;99168.71;105206;1287;22591;-86
2022/07/07 09:17:00;;;;;;;3.30;0.50;;;;;;;20.02;49.69;99169.13;105200;1287;25304;-85
2022/07/07 09:20:03;;;;;;;3.50;0.60;;;;;;;19.88;49.97;99172.59;105141;1287;22581;-87
2022/07/07 09:23:13;;;;;;;4.20;0.80;;;;;;;19.75;49.81;99175.85;105115;1287;25371;-86
2022/07/07 09:26:11;;;;;;;6.30;1.20;;;;;;;19.60;50.25;99170.80;105207;1287;22551;-84
2022/07/07 09:28:47;;;;;;;5.90;1.60;;;;;;;19.61;51.16;99176.12;105218;1286;22779;-86
2022/07/07 09:31:59;;;;;;;5.70;0.80;;;;;;;19.58;51.03;99175.46;105191;1287;22543;-88
2022/07/07 09:34:52;;;;;;;;;;;;;;;;;;;;;
2022/07/07 09:38:32;;;;;;;;;;;;;;;;;;;;;
2022/07/07 09:42:04;;;;;;;4.70;1.00;;;;;;;18.68;51.87;99186.27;105641;1281;22776;-88
2022/07/07 09:44:48;;;;;;;7.40;1.00;;;;;;;18.44;52.18;99185.50;105693;1281;22550;-88
2022/07/07 09:47:59;;;;;;;;;;;;;;;;;;;;;
2022/07/07 09:55:42;;;;;;;4.20;1.10;;;;;;;18.22;52.71;99189.52;104577;1292;25440;-86
2022/07/07 09:59:12;;;;;;;;;;;;;;;;;;;;;
2022/07/07 10:02:44;;;;;;;3.70;0.90;;;;;;;18.27;52.64;99184.16;104052;1300;22815;-87
2022/07/07 10:10:35;;;;;;;;;;;;;;;;;;;;;
2022/07/07 10:18:05;;;;;;;6.50;0.80;;;;;;;20.12;52.21;99173.73;102350;1318;22589;-87
2022/07/07 10:21:06;;;;;;;;;;;;;;;;;;;;;
2022/07/07 10:23:56;;;;;;;5.20;0.90;;;;;;;20.38;52.23;99162.25;101440;1326;24312;-86
2022/07/07 10:27:16;;;;;;;;;;;;;;;;;;;;;
2022/07/07 10:30:14;;;;;;;;;;;;;;;;;;;;;
2022/07/07 10:33:03;;;;;;;6.30;0.80;;;;;;;20.98;52.60;99147.98;101635;1323;22692;-87
2022/07/07 10:35:53;;;;;;;;;;;;;;;;;;;;;
2022/07/07 10:38:40;;;;;;;4.50;1.00;;;;;;;21.31;52.43;99135.75;102476;1314;22576;-92
2022/07/07 10:41:14;;;;;;;5.30;1.20;;;;;;;21.56;52.37;99135.14;106165;1278;25428;-88
2022/07/07 10:43:56;;;;;;;1.80;0.60;;;;;;;21.61;51.48;99133.86;105793;1278;22566;-90
2022/07/07 10:47:15;;;;;;;;;;;;;;;;;;;;;
2022/07/07 10:49:58;;;;;;;3.80;0.70;;;;;;;21.50;51.52;99126.32;106049;1276;25615;-88
2022/07/07 10:52:48;;;;;;;6.40;0.80;;;;;;;21.78;51.71;99131.17;105921;1279;22543;-91
2022/07/07 10:55:17;;;;;;;5.10;0.80;;;;;;;22.14;51.40;99131.63;105863;1278;22606;-88
2022/07/07 10:57:56;;;;;;;4.30;0.70;;;;;;;22.19;51.50;99129.80;105822;1278;22704;-88
2022/07/07 11:00:32;;;;;;;5.00;0.90;;;;;;;22.24;50.62;99130.40;105787;1280;22606;-88
2022/07/07 11:03:17;;;;;;;3.10;0.70;;;;;;;22.17;51.37;99126.25;105760;1280;22574;-90
2022/07/07 11:06:05;;;;;;;4.70;0.80;;;;;;;22.66;51.76;99121.27;105701;1278;23969;-89
2022/07/07 11:08:59;;;;;;;4.00;0.90;;;;;;;23.18;51.12;99113.21;105740;1279;25444;-87
2022/07/07 11:11:41;;;;;;;3.90;0.70;;;;;;;23.05;50.24;99108.27;105813;1278;25917;-88
2022/07/07 11:14:19;;;;;;;4.50;0.50;;;;;;;23.01;50.71;99110.75;105688;1279;23718;-89
2022/07/07 11:16:59;;;;;;;8.10;1.20;;;;;;;23.07;50.58;99111.80;105965;1277;24204;-90
2022/07/07 11:19:33;;;;;;;6.50;1.00;;;;;;;23.13;50.57;99109.23;105824;1277;24211;-90
2022/07/07 11:22:18;;;;;;;7.20;1.20;;;;;;;23.29;50.61;99104.35;105730;1279;22559;-90
2022/07/07 11:25:01;;;;;;;3.30;0.90;;;;;;;23.45;50.76;99105.43;105736;1279;22850;-92
2022/07/07 11:27:50;;;;;;;4.60;0.80;;;;;;;23.63;50.65;99107.45;105832;1278;22555;-88
2022/07/07 11:30:28;;;;;;;3.30;0.80;;;;;;;23.51;50.22;99105.42;105748;1278;25572;-87
2022/07/07 11:33:09;;;;;;;4.00;0.90;;;;;;;23.26;49.63;99103.39;105948;1277;24336;-88
2022/07/07 11:36:01;;;;;;;4.00;0.90;;;;;;;23.24;50.20;99107.61;105797;1277;23956;-87
2022/07/07 11:38:48;;;;;;;6.80;1.00;;;;;;;23.08;49.92;99097.17;105727;1278;22669;-90
2022/07/07 11:41:15;;;;;;;2.10;0.70;;;;;;;23.07;49.67;99103.11;105770;1277;25345;-88
2022/07/07 11:43:54;;;;;;;3.40;0.80;;;;;;;22.83;49.50;99100.05;105715;1278;24191;-87
2022/07/07 11:46:37;;;;;;;5.70;1.10;;;;;;;22.80;50.19;99096.56;105569;1281;22698;-90
2022/07/07 11:49:41;;;;;;;12.20;1.80;;;;;;;23.18;50.31;99097.96;105682;1281;22685;-89
2022/07/07 11:52:27;;;;;;;2.90;0.60;;;;;;;23.39;49.88;99095.48;105690;1281;22654;-87
2022/07/07 11:55:16;;;;;;;4.30;0.70;;;;;;;23.38;49.53;99096.09;105675;1278;22550;-88
2022/07/07 11:58:12;;;;;;;4.00;0.80;;;;;;;23.54;50.01;99091.86;105775;1278;22631;-89
2022/07/07 12:01:08;;;;;;;7.40;0.80;;;;;;;23.57;49.94;99091.09;105693;1279;22561;-86
2022/07/07 12:04:00;;;;;;;3.70;1.00;;;;;;;23.41;50.23;99092.14;105907;1277;25300;-88
2022/07/07 12:06:57;;;;;;;4.80;0.80;;;;;;;23.28;49.90;99091.64;105860;1278;23995;-87
2022/07/07 12:09:33;;;;;;;4.00;0.80;;;;;;;23.02;50.15;99090.18;105867;1281;22705;-88
2022/07/07 12:12:44;;;;;;;4.60;0.80;;;;;;;22.74;49.55;99090.48;105837;1280;23185;-87
2022/07/07 12:15:38;;;;;;;5.50;0.80;;;;;;;22.26;49.68;99095.15;105771;1277;22595;-88
2022/07/07 12:18:26;;;;;;;11.20;1.00;;;;;;;21.94;49.95;99099.52;105873;1277;25773;-89
2022/07/07 12:21:33;;;;;;;4.40;0.80;;;;;;;21.72;49.78;99100.66;105798;1280;22600;-87
2022/07/07 12:24:51;;;;;;;2.50;0.70;;;;;;;21.45;49.93;99099.14;105790;1278;24726;-89
2022/07/07 12:27:48;;;;;;;;;;;;;;;;;;;;;
2022/07/07 12:31:16;;;;;;;6.20;0.90;;;;;;;21.55;50.03;99094.57;105806;1277;22791;-89
2022/07/07 12:34:38;;;;;;;2.80;0.70;;;;;;;21.68;50.38;99094.08;105809;1278;24267;-87
2022/07/07 12:37:22;;;;;;;3.40;0.60;;;;;;;21.83;50.29;99095.00;105835;1277;22561;-87
2022/07/07 12:40:10;;;;;;;3.90;0.60;;;;;;;21.81;49.45;99098.20;105783;1278;24277;-87
2022/07/07 12:43:06;;;;;;;2.70;0.70;;;;;;;21.64;49.91;99098.05;105887;1278;24062;-86
2022/07/07 12:46:16;;;;;;;4.20;0.70;;;;;;;21.56;49.68;99100.82;105906;1278;22559;-87
2022/07/07 12:49:41;;;;;;;3.90;0.60;;;;;;;21.41;49.92;99101.77;105708;1280;22604;-87
2022/07/07 12:52:36;;;;;;;5.30;1.10;;;;;;;21.20;49.52;99105.13;105733;1278;24216;-87
2022/07/07 12:56:10;;;;;;;;;;;;;;;;;;;;;
2022/07/07 12:59:24;;;;;;;;;;;;;;;;;;;;;
2022/07/07 13:02:18;;;;;;;5.80;1.00;;;;;;;20.74;49.98;99119.31;105749;1277;22740;-87
2022/07/07 13:06:17;;;;;;;6.30;0.90;;;;;;;20.69;50.30;99118.23;105705;1279;25358;-88
2022/07/07 13:09:32;;;;;;;;;;;;;;;;;;;;;
2022/07/07 13:12:47;;;;;;;;;;;;;;;;;;;;;
2022/07/07 13:15:47;;;;;;;2.50;0.90;;;;;;;20.82;50.60;99105.77;105094;1287;26503;-87
2022/07/07 13:18:43;;;;;;;;;;;;;;;;;;;;;
2022/07/07 13:22:03;;;;;;;5.50;0.60;;;;;;;21.46;50.40;99102.36;105046;1287;26617;-88
2022/07/07 13:25:35;;;;;;;;;;;;;;;;;;;;;
2022/07/07 13:28:40;;;;;;;;;;;;;;;;;;;;;
2022/07/07 13:32:07;;;;;;;4.50;0.80;;;;;;;21.45;50.15;99098.88;105065;1288;24228;-89
2022/07/07 13:34:59;;;;;;;;;;;;;;;;;;;;;
2022/07/07 13:38:20;;;;;;;;;;;;;;;;;;;;;
2022/07/07 13:41:44;;;;;;;;;;;;;;;;;;;;;
2022/07/07 13:45:42;;;;;;;3.10;0.70;;;;;;;21.30;50.50;99095.45;104062;1291;24237;-88
2022/07/07 13:49:23;;;;;;;3.60;0.60;;;;;;;21.37;50.02;99094.23;104856;1290;22767;-87
2022/07/07 13:52:30;;;;;;;;;;;;;;;;;;;;;
2022/07/07 13:55:52;;;;;;;3.00;0.70;;;;;;;21.52;49.79;99095.06;103916;1297;22860;-87
2022/07/07 13:59:16;;;;;;;;;;;;;;;;;;;;;
2022/07/07 14:02:38;;;;;;;;;;;;;;;;;;;;;
2022/07/07 14:06:10;;;;;;;;;;;;;;;;;;;;;
2022/07/07 14:09:29;;;;;;;;;;;;;;;;;;;;;
2022/07/07 14:12:28;;;;;;;7.70;1.80;;;;;;;21.50;50.01;99089.51;103341;1306;25376;-87
2022/07/07 14:15:49;;;;;;;7.00;1.90;;;;;;;21.67;50.29;99089.95;103529;1300;25529;-89
2022/07/07 14:18:53;;;;;;;7.10;2.10;;;;;;;21.85;50.17;99089.32;103669;1300;25455;-90
2022/07/07 14:21:52;;;;;;;7.40;1.90;;;;;;;21.92;50.10;99088.38;103752;1297;25924;-88
2022/07/07 14:24:28;;;;;;;5.90;1.80;;;;;;;21.91;50.19;99089.00;103908;1300;22783;-86
2022/07/07 14:27:06;;;;;;;11.50;2.10;;;;;;;21.89;50.14;99091.05;104056;1297;26472;-88
2022/07/07 14:29:39;;;;;;;5.40;1.60;;;;;;;21.83;50.12;99092.88;104679;1287;22547;-89
2022/07/07 14:32:17;;;;;;;7.80;1.80;;;;;;;21.70;50.00;99087.95;104667;1290;22576;-91
2022/07/07 14:35:27;;;;;;;5.60;1.60;;;;;;;21.48;50.13;99087.42;104764;1287;25251;-89
2022/07/07 14:38:18;;;;;;;4.70;1.50;;;;;;;21.40;50.25;99088.55;104943;1287;25446;-87
2022/07/07 14:41:17;;;;;;;7.30;1.60;;;;;;;21.31;50.30;99087.81;105126;1284;22578;-88
2022/07/07 14:44:24;;;;;;;6.10;1.60;;;;;;;21.20;50.37;99085.74;105129;1284;24256;-87
2022/07/07 14:47:14;;;;;;;3.40;1.00;;;;;;;21.09;50.65;99088.09;105165;1284;22545;-89
2022/07/07 14:49:50;;;;;;;4.10;1.50;;;;;;;21.13;50.56;99088.05;105539;1277;22535;-89
2022/07/07 14:52:32;;;;;;;5.00;1.60;;;;;;;21.22;50.55;99086.95;105893;1277;25460;-88
2022/07/07 14:55:29;;;;;;;5.60;1.40;;;;;;;21.31;50.65;99087.75;105724;1278;24286;-88
2022/07/07 14:58:16;;;;;;;5.80;1.80;;;;;;;21.24;50.22;99087.42;105821;1277;22720;-90
2022/07/07 15:00:58;;;;;;;6.80;1.80;;;;;;;21.16;50.49;99089.73;105916;1278;22576;-88
2022/07/07 15:03:38;;;;;;;6.50;1.40;;;;;;;21.07;50.29;99093.91;105980;1277;25357;-88
2022/07/07 15:06:47;;;;;;;;;;;;;;;;;;;;;
2022/07/07 15:09:22;;;;;;;4.20;0.80;;;;;;;20.94;50.48;99092.92;106049;1277;25359;-87
2022/07/07 15:12:10;;;;;;;2.90;0.70;;;;;;;20.91;50.66;99089.97;105902;1277;23991;-87
2022/07/07 15:14:55;;;;;;;2.40;0.70;;;;;;;20.90;50.71;99093.38;105981;1277;22554;-90
2022/07/07 15:17:48;;;;;;;4.90;0.80;;;;;;;20.89;50.71;99093.36;106041;1277;24749;-87
2022/07/07 15:20:51;;;;;;;1.60;0.50;;;;;;;20.98;50.83;99092.15;106094;1277;24245;-91
2022/07/07 15:23:30;;;;;;;3.30;0.80;;;;;;;20.95;50.67;99093.54;105761;1277;24772;-87
2022/07/07 15:26:21;;;;;;;2.40;0.70;;;;;;;20.94;50.60;99094.08;105836;1277;22685;-92
2022/07/07 15:29:17;;;;;;;3.90;1.10;;;;;;;20.78;50.59;99097.45;105773;1278;22675;-90
2022/07/07 15:32:19;;;;;;;2.30;0.80;;;;;;;20.65;50.50;99096.45;105739;1277;23926;-89
2022/07/07 15:34:58;;;;;;;4.80;0.80;;;;;;;20.51;50.66;99099.30;106019;1277;26873;-86
2022/07/07 15:37:46;;;;;;;3.50;0.90;;;;;;;20.36;50.54;99096.23;105939;1278;22560;-87
2022/07/07 15:41:07;;;;;;;6.00;0.80;;;;;;;20.32;50.98;99098.05;105929;1277;22656;-90
2022/07/07 15:44:05;;;;;;;2.10;0.70;;;;;;;20.27;51.05;99097.98;105851;1277;22719;-90
2022/07/07 15:47:05;;;;;;;5.20;0.80;;;;;;;20.30;51.11;99098.59;105807;1278;22535;-88
2022/07/07 15:49:48;;;;;;;2.20;0.80;;;;;;;20.18;51.13;99102.63;105756;1278;24674;-88
2022/07/07 15:52:44;;;;;;;4.90;0.90;;;;;;;20.08;50.93;99107.85;105715;1278;25578;-89
2022/07/07 15:55:54;;;;;;;2.70;0.90;;;;;;;20.06;51.26;99107.39;105646;1278;23065;-87
2022/07/07 15:58:54;;;;;;;3.10;1.10;;;;;;;20.06;51.23;99107.05;105770;1278;25229;-87
2022/07/07 16:01:34;;;;;;;3.20;1.10;;;;;;;19.98;51.33;99111.17;105769;1278;22825;-89
2022/07/07 16:04:44;;;;;;;4.50;0.90;;;;;;;19.84;51.23;99111.65;105789;1278;25354;-88
2022/07/07 16:07:48;;;;;;;5.00;1.00;;;;;;;19.69;51.48;99112.71;105912;1277;25381;-87
2022/07/07 16:10:42;;;;;;;3.20;1.10;;;;;;;19.68;51.81;99115.90;106096;1276;25307;-87
2022/07/07 16:13:36;;;;;;;;;;;;;;;;;;;;;
2022/07/07 16:16:29;;;;;;;3.10;1.20;;;;;;;19.73;51.90;99110.45;105955;1277;22610;-87
2022/07/07 16:19:02;;;;;;;5.30;1.40;;;;;;;19.63;51.68;99110.16;105832;1277;25493;-88
2022/07/07 16:21:55;;;;;;;;;;;;;;;;;;;;;
2022/07/07 16:24:27;;;;;;;4.00;1.60;;;;;;;19.45;51.90;99114.20;105934;1277;22534;-88
2022/07/07 16:27:16;;;;;;;4.60;1.60;;;;;;;19.31;52.01;99118.42;105741;1277;25430;-87
2022/07/07 16:30:01;;;;;;;4.40;1.40;;;;;;;19.23;51.95;99118.56;105754;1277;24765;-90
2022/07/07 16:33:15;;;;;;;;;;;;;;;;;;;;;
2022/07/07 16:36:06;;;;;;;4.50;1.60;;;;;;;18.92;52.24;99119.59;106058;1277;23586;-90
2022/07/07 16:38:58;;;;;;;6.10;1.80;;;;;;;18.89;52.51;99123.10;105919;1277;25236;-88
2022/07/07 16:42:04;;;;;;;6.00;1.50;;;;;;;18.87;52.29;99126.60;105749;1277;24260;-88
2022/07/07 16:44:52;;;;;;;11.70;4.10;;;;;;;18.80;52.44;99126.74;105884;1276;24752;-87
2022/07/07 16:48:12;;;;;;;8.30;2.50;;;;;;;18.76;52.58;99126.80;105734;1276;26554;-93
2022/07/07 16:51:32;;;;;;;5.50;1.70;;;;;;;18.72;52.59;99122.98;105862;1280;25254;-87
2022/07/07 16:54:37;;;;;;;13.70;1.90;;;;;;;18.65;52.67;99125.59;105376;1284;24399;-87
2022/07/07 16:57:19;;;;;;;4.20;1.50;;;;;;;18.61;52.66;99127.93;105276;1284;22566;-87
2022/07/07 17:00:45;;;;;;;;;;;;;;;;;;;;;
2022/07/07 17:04:15;;;;;;;3.90;1.50;;;;;;;18.48;52.85;99127.94;105412;1284;22594;-88
2022/07/07 17:07:41;;;;;;;4.30;1.70;;;;;;;18.40;52.83;99131.85;105237;1284;25385;-88
2022/07/07 17:11:39;;;;;;;5.70;1.50;;;;;;;18.39;53.04;99130.52;105233;1284;22590;-89
2022/07/07 17:14:55;;;;;;;;;;;;;;;;;;;;;
2022/07/07 17:17:44;;;;;;;6.00;1.90;;;;;;;18.29;53.14;99129.33;104891;1289;22745;-90
2022/07/07 17:20:31;;;;;;;;;;;;;;;;;;;;;
2022/07/07 17:23:32;;;;;;;6.60;1.60;;;;;;;18.21;53.31;99121.02;104908;1289;26548;-89
2022/07/07 17:26:50;;;;;;;;;;;;;;;;;;;;;
2022/07/07 17:30:34;;;;;;;5.10;1.70;;;;;;;18.26;53.30;99114.89;104991;1289;24261;-88
2022/07/07 17:34:16;;;;;;;;;;;;;;;;;;;;;
2022/07/07 17:37:54;;;;;;;5.70;2.30;;;;;;;18.29;53.55;99114.73;104363;1292;24695;-90
2022/07/07 17:41:27;;;;;;;;;;;;;;;;;;;;;
2022/07/07 17:44:50;;;;;;;;;;;;;;;;;;;;;
2022/07/07 17:48:29;;;;;;;5.30;2.40;;;;;;;18.23;53.66;99108.16;103861;1300;22867;-91
2022/07/07 17:51:39;;;;;;;;;;;;;;;;;;;;;
2022/07/07 17:54:52;;;;;;;5.80;2.10;;;;;;;18.27;53.96;99107.20;103727;1300;22590;-86
2022/07/07 17:57:43;;;;;;;4.30;1.80;;;;;;;18.29;54.17;99102.27;103823;1300;25422;-87
2022/07/07 18:00:13;;;;;;;5.00;2.00;;;;;;;18.36;54.18;99104.84;103851;1300;22543;-89
2022/07/07 18:03:41;;;;;;;4.50;1.80;;;;;;;18.37;54.16;99111.04;103917;1300;22741;-88
2022/07/07 18:06:55;;;;;;;5.00;1.80;;;;;;;18.39;54.32;99114.27;103923;1300;22641;-89
2022/07/07 18:12:50;;;;;;;6.00;1.90;;;;;;;18.28;54.28;99125.81;104083;1293;22140;-87
2022/07/07 18:15:46;;;;;;;5.40;2.10;;;;;;;18.26;54.30;99126.61;104878;1292;22704;-87
2022/07/07 18:18:29;;;;;;;4.70;1.80;;;;;;;18.22;54.42;99130.42;104830;1293;25389;-87
2022/07/07 18:21:05;;;;;;;4.60;2.00;;;;;;;18.15;54.36;99134.05;105016;1287;24256;-88
2022/07/07 18:23:35;;;;;;;4.40;1.90;;;;;;;18.08;54.55;99136.88;105457;1286;22707;-87
2022/07/07 18:27:11;;;;;;;4.20;2.00;;;;;;;18.06;54.61;99139.59;105370;1284;22740;-88
2022/07/07 18:29:38;;;;;;;5.70;2.00;;;;;;;18.02;54.79;99143.95;105219;1284;25244;-89
2022/07/07 18:32:34;;;;;;;4.80;2.10;;;;;;;17.98;54.91;99145.80;106371;1277;24233;-86
2022/07/07 18:35:18;;;;;;;4.50;1.80;;;;;;;17.97;54.92;99147.62;105959;1277;22539;-89
2022/07/07 18:38:10;;;;;;;;;;;;;;;;;;;;;
2022/07/07 18:40:52;;;;;;;5.70;2.10;;;;;;;17.92;55.14;99146.82;105802;1278;22698;-86
2022/07/07 18:43:44;;;;;;;5.10;2.00;;;;;;;17.92;55.14;99148.81;105786;1278;25247;-88
2022/07/07 18:46:57;;;;;;;5.10;1.70;;;;;;;17.93;55.20;99154.82;106086;1278;24245;-87
2022/07/07 18:49:35;;;;;;;6.60;2.10;;;;;;;17.97;55.36;99155.70;105883;1277;22484;-87
2022/07/07 18:52:24;;;;;;;6.10;2.30;;;;;;;17.98;55.20;99158.23;105879;1277;24231;-87
2022/07/07 18:54:56;;;;;;;4.80;2.00;;;;;;;17.97;55.52;99159.07;105900;1278;22726;-89
2022/07/07 18:57:42;;;;;;;8.90;2.30;;;;;;;17.98;55.42;99160.02;105955;1277;25314;-86
2022/07/07 19:00:21;;;;;;;6.40;2.00;;;;;;;17.97;55.52;99163.83;106354;1279;24208;-89
2022/07/07 19:02:48;;;;;;;4.40;1.70;;;;;;;17.95;55.62;99166.14;105728;1281;22729;-89
2022/07/07 19:05:36;;;;;;;4.90;2.10;;;;;;;17.92;55.72;99162.12;105398;1281;22568;-88
2022/07/07 19:08:13;;;;;;;4.40;1.90;;;;;;;17.92;55.85;99171.38;105294;1281;25298;-87
2022/07/07 19:10:59;;;;;;;4.60;2.10;;;;;;;17.88;55.92;99171.38;105589;1281;22580;-88
2022/07/07 19:13:54;;;;;;;5.80;2.30;;;;;;;17.85;55.92;99179.95;105858;1278;22700;-87
2022/07/07 19:16:24;;;;;;;5.50;2.20;;;;;;;17.80;56.06;99178.83;105962;1278;22574;-87
2022/07/07 19:18:51;;;;;;;6.50;2.30;;;;;;;17.74;56.09;99182.45;105383;1278;25916;-88
2022/07/07 19:21:22;;;;;;;4.10;1.80;;;;;;;17.68;56.03;99185.60;106178;1278;24267;-88
2022/07/07 19:24:03;;;;;;;4.80;1.80;;;;;;;17.61;56.12;99187.77;106243;1279;25195;-87
2022/07/07 19:26:38;;;;;;;6.10;1.70;;;;;;;17.60;56.24;99189.67;106024;1278;24222;-87
2022/07/07 19:29:29;;;;;;;5.20;1.80;;;;;;;17.62;56.35;99191.60;106504;1277;22576;-88
2022/07/07 19:32:32;;;;;;;5.80;2.00;;;;;;;17.63;56.39;99192.23;106911;1277;25198;-88
2022/07/07 19:35:20;;;;;;;5.60;1.80;;;;;;;17.63;56.60;99191.54;106173;1277;22610;-89
2022/07/07 19:37:53;;;;;;;6.10;2.10;;;;;;;17.66;56.65;99197.48;106437;1279;22614;-89
2022/07/07 19:40:28;;;;;;;4.90;2.10;;;;;;;17.67;56.60;99198.84;106163;1278;23298;-89
2022/07/07 19:43:23;;;;;;;7.80;2.10;;;;;;;17.65;56.73;99197.98;106493;1277;25366;-89
2022/07/07 19:45:58;;;;;;;4.60;2.00;;;;;;;17.61;56.79;99196.04;106039;1277;24221;-87
2022/07/07 19:49:12;;;;;;;7.20;2.50;;;;;;;17.59;56.78;99195.11;107321;1277;22620;-86